createdAt,value
2018-06-05T00:02:27.681Z,62.23
2018-06-05T00:05:02.013Z,64.77
2018-06-05T00:07:36.647Z,63.97
2018-06-05T00:10:11.163Z,59.00
2018-06-05T00:12:45.552Z,63.73
2018-06-05T00:15:19.892Z,62.83
2018-06-05T00:17:54.636Z,72.00
2018-06-05T00:20:29.053Z,68.50
2018-06-05T00:23:03.319Z,69.23
2018-06-05T00:25:37.632Z,73.00
2018-06-05T00:28:12.064Z,74.03
2018-06-05T00:30:46.342Z,76.07
2018-06-05T00:33:20.759Z,77.40
2018-06-05T00:35:54.967Z,70.47
2018-06-05T00:38:29.308Z,77.03
2018-06-05T00:41:03.649Z,72.37
2018-06-05T00:43:37.984Z,74.80
2018-06-05T00:46:12.371Z,79.33
2018-06-05T00:48:46.801Z,72.90
2018-06-05T00:51:32.547Z,80.73
2018-06-05T00:54:06.948Z,71.03
2018-06-05T00:56:48.159Z,76.73
2018-06-05T00:59:22.508Z,70.03
2018-06-05T01:01:56.831Z,71.77
2018-06-05T01:04:31.133Z,69.00
2018-06-05T01:07:05.666Z,69.43
2018-06-05T01:09:40.116Z,71.50
2018-06-05T01:12:14.470Z,66.33
2018-06-05T01:14:48.866Z,63.07
2018-06-05T01:17:23.203Z,65.80
2018-06-05T01:19:57.571Z,72.33
2018-06-05T01:22:32.003Z,68.63
2018-06-05T01:25:06.472Z,70.80
2018-06-05T01:27:40.923Z,62.10
2018-06-05T01:30:15.186Z,61.10
2018-06-05T01:32:49.832Z,67.37
2018-06-05T01:35:24.234Z,68.57
2018-06-05T01:37:58.559Z,70.53
2018-06-05T01:40:32.817Z,63.80
2018-06-05T01:43:07.027Z,67.67
2018-06-05T01:45:41.472Z,62.37
2018-06-05T01:48:15.823Z,64.50
2018-06-05T01:50:50.250Z,70.10
2018-06-05T01:53:31.279Z,67.80
2018-06-05T01:56:05.759Z,70.03
2018-06-05T01:58:40.176Z,67.53
2018-06-05T02:01:14.609Z,66.27
2018-06-05T02:03:48.987Z,71.27
2018-06-05T02:06:23.279Z,63.30
2018-06-05T02:08:57.698Z,70.93
2018-06-05T02:11:32.064Z,63.33
2018-06-05T02:14:06.468Z,68.40
2018-06-05T02:16:40.860Z,68.17
2018-06-05T02:19:15.166Z,64.47
2018-06-05T02:21:49.897Z,69.53
2018-06-05T02:24:24.244Z,66.13
2018-06-05T02:26:58.599Z,66.43
2018-06-05T02:29:32.883Z,67.77
2018-06-05T02:32:07.232Z,65.30
2018-06-05T02:34:41.544Z,62.50
2018-06-05T02:37:15.876Z,68.10
2018-06-05T02:39:50.387Z,67.37
2018-06-05T02:42:24.743Z,63.77
2018-06-05T02:44:59.351Z,62.80
2018-06-05T02:47:33.787Z,67.30
2018-06-05T02:50:08.103Z,66.33
2018-06-05T02:52:42.516Z,68.60
2018-06-05T02:55:16.996Z,62.73
2018-06-05T02:57:51.379Z,64.07
2018-06-05T03:00:25.756Z,64.93
2018-06-05T03:03:00.051Z,60.60
2018-06-05T03:05:34.280Z,67.50
2018-06-05T03:08:08.643Z,61.17
2018-06-05T03:10:42.997Z,61.10
2018-06-05T03:13:17.416Z,67.47
2018-06-05T03:15:51.776Z,66.97
2018-06-05T03:18:26.260Z,66.47
2018-06-05T03:21:00.620Z,63.20
2018-06-05T03:23:35.195Z,62.10
2018-06-05T03:26:09.608Z,63.60
2018-06-05T03:28:43.964Z,56.97
2018-06-05T03:31:18.351Z,64.27
2018-06-05T03:33:52.739Z,74.67
2018-06-05T03:36:27.011Z,65.37
2018-06-05T03:39:01.415Z,66.40
2018-06-05T03:41:35.807Z,62.67
2018-06-05T03:44:10.164Z,64.43
2018-06-05T03:46:44.509Z,67.23
2018-06-05T03:49:18.844Z,70.60
2018-06-05T03:51:53.130Z,59.33
2018-06-05T03:54:27.467Z,58.40
2018-06-05T03:57:01.819Z,65.37
2018-06-05T03:59:36.199Z,60.90
2018-06-05T04:02:10.576Z,60.77
2018-06-05T04:04:44.864Z,63.23
2018-06-05T04:07:19.240Z,63.17
2018-06-05T04:09:53.640Z,59.87
2018-06-05T04:12:28.064Z,59.60
2018-06-05T04:15:02.458Z,54.10
2018-06-05T04:17:36.814Z,55.53
2018-06-05T04:20:11.199Z,55.77
2018-06-05T04:22:45.647Z,52.83
2018-06-05T04:25:20.272Z,56.63
2018-06-05T04:27:54.645Z,53.67
2018-06-05T04:30:28.995Z,51.20
2018-06-05T04:33:03.364Z,54.47
2018-06-05T04:35:37.723Z,57.93
2018-06-05T04:38:12.108Z,47.50
2018-06-05T04:40:46.753Z,49.40
2018-06-05T04:43:21.192Z,53.67
2018-06-05T04:45:55.631Z,56.40
2018-06-05T04:48:30.040Z,59.40
2018-06-05T04:51:04.561Z,55.87
2018-06-05T04:53:38.941Z,55.80
2018-06-05T04:56:13.304Z,57.70
2018-06-05T04:58:47.583Z,55.97
2018-06-05T05:01:21.906Z,52.53
2018-06-05T05:03:56.163Z,53.80
2018-06-05T05:06:30.539Z,51.27
2018-06-05T05:09:06.744Z,54.20
2018-06-05T05:11:41.088Z,51.47
2018-06-05T05:14:15.459Z,51.43
2018-06-05T05:16:50.080Z,52.47
2018-06-05T05:19:24.385Z,49.57
2018-06-05T05:21:58.886Z,52.87
2018-06-05T05:24:33.199Z,46.40
2018-06-05T05:27:07.886Z,48.10
2018-06-05T05:29:42.122Z,46.10
2018-06-05T05:32:16.806Z,52.27
2018-06-05T05:34:51.159Z,46.80
2018-06-05T05:37:25.572Z,51.37
2018-06-05T05:39:59.959Z,49.03
2018-06-05T05:42:34.318Z,52.70
2018-06-05T05:45:08.915Z,47.73
2018-06-05T05:47:43.288Z,47.90
2018-06-05T05:50:17.707Z,50.13
2018-06-05T05:52:51.976Z,50.43
2018-06-05T05:55:26.355Z,46.00
2018-06-05T05:58:00.691Z,47.60
2018-06-05T06:00:35.132Z,50.00
2018-06-05T06:03:09.732Z,48.97
2018-06-05T06:05:44.041Z,46.80
2018-06-05T06:08:18.440Z,49.47
2018-06-05T06:10:52.821Z,47.00
2018-06-05T06:13:27.287Z,44.27
2018-06-05T06:16:01.719Z,49.70
2018-06-05T06:18:36.030Z,47.97
2018-06-05T06:21:10.455Z,49.00
2018-06-05T06:23:44.887Z,52.83
2018-06-05T06:26:19.279Z,45.57
2018-06-05T06:28:53.723Z,49.53
2018-06-05T06:31:28.131Z,47.53
2018-06-05T06:34:02.819Z,48.33
2018-06-05T06:36:37.288Z,48.60
2018-06-05T06:39:11.671Z,49.20
2018-06-05T06:41:46.007Z,47.40
2018-06-05T06:44:20.424Z,46.57
2018-06-05T06:46:54.835Z,46.90
2018-06-05T06:49:29.595Z,51.00
2018-06-05T06:52:03.872Z,53.03
2018-06-05T06:54:38.219Z,48.50
2018-06-05T06:57:12.636Z,48.20
2018-06-05T06:59:47.063Z,52.77
2018-06-05T07:02:21.306Z,48.10
2018-06-05T07:04:55.583Z,52.73
2018-06-05T07:07:29.940Z,49.07
2018-06-05T07:10:04.463Z,49.00
2018-06-05T07:12:38.954Z,54.90
2018-06-05T07:15:13.288Z,56.83
2018-06-05T07:17:47.495Z,60.93
2018-06-05T07:20:21.845Z,63.07
2018-06-05T07:22:56.050Z,54.90
2018-06-05T07:25:30.365Z,52.27
2018-06-05T07:28:04.678Z,54.63
2018-06-05T07:30:39.123Z,51.47
2018-06-05T07:33:13.416Z,51.30
2018-06-05T07:35:47.858Z,53.47
2018-06-05T07:38:22.685Z,55.40
2018-06-05T07:40:57.123Z,53.00
2018-06-05T07:43:31.486Z,53.37
2018-06-05T07:46:06.204Z,52.77
2018-06-05T07:48:40.683Z,53.63
2018-06-05T07:51:15.021Z,51.37
2018-06-05T07:53:49.299Z,54.43
2018-06-05T07:56:23.788Z,58.97
2018-06-05T07:58:58.142Z,55.33
2018-06-05T08:01:32.614Z,58.30
2018-06-05T08:04:07.088Z,55.13
2018-06-05T08:06:41.724Z,53.27
2018-06-05T08:09:16.225Z,54.20
2018-06-05T08:11:50.696Z,53.13
2018-06-05T08:14:25.131Z,51.93
2018-06-05T08:16:59.724Z,52.57
2018-06-05T08:19:34.300Z,54.43
2018-06-05T08:22:08.719Z,50.60
2018-06-05T08:24:43.289Z,50.80
2018-06-05T08:27:17.884Z,52.67
2018-06-05T08:29:52.241Z,48.47
2018-06-05T08:32:26.772Z,56.47
2018-06-05T08:35:01.391Z,46.30
2018-06-05T08:37:35.953Z,47.53
2018-06-05T08:40:10.404Z,46.13
2018-06-05T08:42:51.481Z,48.67
2018-06-05T08:45:26.268Z,49.75
2018-06-05T08:48:00.909Z,46.90
2018-06-05T08:50:35.476Z,50.13
2018-06-05T08:53:09.997Z,48.57
2018-06-05T08:55:44.520Z,49.70
2018-06-05T08:58:19.116Z,51.17
2018-06-05T09:00:53.444Z,48.40
2018-06-05T09:03:27.898Z,49.77
2018-06-05T09:06:02.469Z,56.87
2018-06-05T09:08:36.780Z,52.83
2018-06-05T09:11:11.196Z,56.90
2018-06-05T09:13:45.620Z,53.57
2018-06-05T09:16:19.991Z,56.37
2018-06-05T09:18:54.345Z,56.50
2018-06-05T09:21:28.692Z,58.00
2018-06-05T09:24:03.180Z,56.43
2018-06-05T09:26:37.672Z,59.10
2018-06-05T09:29:12.367Z,55.57
2018-06-05T09:31:47.044Z,58.40
2018-06-05T09:34:21.679Z,59.57
2018-06-05T09:36:56.306Z,62.60
2018-06-05T09:39:30.778Z,60.47
2018-06-05T09:42:05.157Z,63.37
2018-06-05T09:44:39.599Z,59.57
2018-06-05T09:47:14.191Z,58.77
2018-06-05T09:49:48.636Z,63.97
2018-06-05T09:52:23.242Z,63.33
2018-06-05T09:54:57.756Z,61.67
2018-06-05T09:57:32.213Z,61.23
2018-06-05T10:00:06.769Z,61.00
2018-06-05T10:02:41.243Z,63.37
2018-06-05T10:05:15.663Z,59.17
2018-06-05T10:07:50.200Z,58.03
2018-06-05T10:10:24.689Z,56.67
2018-06-05T10:12:59.100Z,64.13
2018-06-05T10:15:33.704Z,63.13
2018-06-05T10:18:08.144Z,66.60
2018-06-05T10:20:42.493Z,69.63
2018-06-05T10:23:16.900Z,69.67
2018-06-05T10:25:51.456Z,67.53
2018-06-05T10:28:25.854Z,65.83
2018-06-05T10:31:00.324Z,66.17
2018-06-05T10:33:34.808Z,64.37
2018-06-05T10:36:09.268Z,66.90
2018-06-05T10:38:43.913Z,65.40
2018-06-05T10:41:18.493Z,70.63
2018-06-05T10:43:52.880Z,75.17
2018-06-05T10:46:27.308Z,70.83
2018-06-05T10:49:01.710Z,67.27
2018-06-05T10:51:36.061Z,72.20
2018-06-05T10:54:10.810Z,72.97
2018-06-05T10:56:45.288Z,66.77
2018-06-05T10:59:19.857Z,67.93
2018-06-05T11:01:54.216Z,63.37
2018-06-05T11:04:28.676Z,72.17
2018-06-05T11:07:03.200Z,63.93
2018-06-05T11:09:37.808Z,68.20
2018-06-05T11:12:12.172Z,66.77
2018-06-05T11:14:46.437Z,63.07
2018-06-05T11:17:20.962Z,59.80
2018-06-05T11:19:55.335Z,63.90
2018-06-05T11:22:29.981Z,68.97
2018-06-05T11:25:04.597Z,65.43
2018-06-05T11:27:39.108Z,66.40
2018-06-05T11:30:13.455Z,69.07
2018-06-05T11:32:47.978Z,64.43
2018-06-05T11:35:22.893Z,66.17
2018-06-05T11:37:57.223Z,60.57
2018-06-05T11:40:31.585Z,63.20
2018-06-05T11:43:06.004Z,60.13
2018-06-05T11:45:40.396Z,58.67
2018-06-05T11:48:14.783Z,63.80
2018-06-05T11:50:49.193Z,55.37
2018-06-05T11:53:23.809Z,61.13
2018-06-05T11:55:58.221Z,59.80
2018-06-05T11:58:32.612Z,64.00
2018-06-05T12:01:07.097Z,62.27
2018-06-05T12:03:41.497Z,59.93
2018-06-05T12:06:16.176Z,57.27
2018-06-05T12:08:50.760Z,53.43
2018-06-05T12:11:25.165Z,49.93
2018-06-05T12:13:59.590Z,55.63
2018-06-05T12:16:34.153Z,53.40
2018-06-05T12:19:08.696Z,58.53
2018-06-05T12:21:43.112Z,51.33
2018-06-05T12:24:17.856Z,49.87
2018-06-05T12:26:52.460Z,47.83
2018-06-05T12:29:27.004Z,49.87
2018-06-05T12:32:01.564Z,46.80
2018-06-05T12:34:36.081Z,51.67
2018-06-05T12:37:10.536Z,49.77
2018-06-05T12:39:45.062Z,51.73
2018-06-05T12:42:19.644Z,45.57
2018-06-05T12:44:54.240Z,46.07
2018-06-05T12:47:28.773Z,48.33
2018-06-05T12:50:03.256Z,45.10
2018-06-05T12:52:37.785Z,44.30
2018-06-05T12:55:12.172Z,43.43
2018-06-05T12:57:46.666Z,42.37
2018-06-05T13:00:21.215Z,44.50
2018-06-05T13:02:55.684Z,50.17
2018-06-05T13:05:30.068Z,41.40
2018-06-05T13:08:04.486Z,47.40
2018-06-05T13:10:38.900Z,48.67
2018-06-05T13:13:13.408Z,51.40
2018-06-05T13:15:47.796Z,45.63
2018-06-05T13:18:22.158Z,47.00
2018-06-05T13:20:56.592Z,45.37
2018-06-05T13:23:30.984Z,44.67
2018-06-05T13:26:05.381Z,43.13
2018-06-05T13:28:39.796Z,45.57
2018-06-05T13:31:14.612Z,50.80
2018-06-05T13:33:52.379Z,46.03
2018-06-05T13:36:26.968Z,46.30
2018-06-05T13:39:01.541Z,42.87
2018-06-05T13:41:36.137Z,47.03
2018-06-05T13:44:10.352Z,43.43
2018-06-05T13:46:44.820Z,46.73
2018-06-05T13:49:19.281Z,41.07
2018-06-05T13:51:54.056Z,38.60
2018-06-05T13:54:28.529Z,41.30
2018-06-05T13:57:03.214Z,42.60
2018-06-05T13:59:37.749Z,45.60
2018-06-05T14:02:12.100Z,41.87
2018-06-05T14:04:46.984Z,42.63
2018-06-05T14:07:21.453Z,55.87
2018-06-05T14:09:56.243Z,42.53
2018-06-05T14:12:30.832Z,45.57
2018-06-05T14:15:05.516Z,50.20
2018-06-05T14:17:39.908Z,45.33
2018-06-05T14:20:14.344Z,50.63
2018-06-05T14:22:48.723Z,46.13
2018-06-05T14:25:23.292Z,48.27
2018-06-05T14:27:57.825Z,50.60
2018-06-05T14:30:32.228Z,55.23
2018-06-05T14:33:06.596Z,47.90
2018-06-05T14:35:40.968Z,50.07
2018-06-05T14:38:15.311Z,47.33
2018-06-05T14:40:49.908Z,44.13
2018-06-05T14:43:24.312Z,44.23
2018-06-05T14:45:58.665Z,43.57
2018-06-05T14:48:33.113Z,43.37
2018-06-05T14:51:07.917Z,42.30
2018-06-05T14:53:42.632Z,44.50
2018-06-05T14:56:17.477Z,42.70
2018-06-05T14:58:52.032Z,42.70
2018-06-05T15:01:26.608Z,41.67
2018-06-05T15:04:01.092Z,42.40
2018-06-05T15:06:35.644Z,45.70
2018-06-05T15:09:09.990Z,39.00
2018-06-05T15:11:44.304Z,41.73
2018-06-05T15:14:18.679Z,42.43
2018-06-05T15:16:54.815Z,41.40
2018-06-05T15:19:30.033Z,42.03
2018-06-05T15:22:04.692Z,38.60
2018-06-05T15:24:39.180Z,44.87
2018-06-05T15:27:13.548Z,41.40
2018-06-05T15:29:47.995Z,39.03
2018-06-05T15:32:22.436Z,43.57
2018-06-05T15:34:56.746Z,41.80
2018-06-05T15:37:31.320Z,39.37
2018-06-05T15:40:06.004Z,41.47
2018-06-05T15:42:40.394Z,44.43
2018-06-05T15:45:14.881Z,42.10
2018-06-05T15:47:49.300Z,37.47
2018-06-05T15:50:24.127Z,43.83
2018-06-05T15:52:58.528Z,42.30
2018-06-05T15:55:32.917Z,39.33
2018-06-05T15:58:07.598Z,46.20
2018-06-05T16:00:42.336Z,48.23
2018-06-05T16:03:17.102Z,39.87
2018-06-05T16:05:51.660Z,46.27
2018-06-05T16:08:26.030Z,47.30
2018-06-05T16:11:00.432Z,53.90
2018-06-05T16:13:35.009Z,58.17
2018-06-05T16:16:09.435Z,59.10
2018-06-05T16:18:43.900Z,48.40
2018-06-05T16:21:18.388Z,50.77
2018-06-05T16:23:52.695Z,55.47
2018-06-05T16:26:27.097Z,64.03
2018-06-05T16:29:01.407Z,59.10
2018-06-05T16:31:35.703Z,56.27
2018-06-05T16:34:10.087Z,61.33
2018-06-05T16:36:44.400Z,60.83
2018-06-05T16:39:18.845Z,66.47
2018-06-05T16:41:53.252Z,67.20
2018-06-05T16:44:27.698Z,66.47
2018-06-05T16:47:02.096Z,65.17
2018-06-05T16:49:36.455Z,72.23
2018-06-05T16:52:10.823Z,65.33
2018-06-05T16:54:45.067Z,69.73
2018-06-05T16:57:19.440Z,64.00
2018-06-05T16:59:53.740Z,63.33
2018-06-05T17:02:28.024Z,61.77
2018-06-05T17:05:02.421Z,60.97
2018-06-05T17:07:36.791Z,60.00
2018-06-05T17:10:11.152Z,63.77
2018-06-05T17:12:45.574Z,61.67
2018-06-05T17:15:19.939Z,59.50
2018-06-05T17:17:54.315Z,54.77
2018-06-05T17:20:28.600Z,53.90
2018-06-05T17:23:03.179Z,53.17
2018-06-05T17:25:37.631Z,54.67
2018-06-05T17:28:12.059Z,50.90
2018-06-05T17:30:46.444Z,53.87
2018-06-05T17:33:20.807Z,51.63
2018-06-05T17:35:55.153Z,48.67
2018-06-05T17:38:29.564Z,46.93
2018-06-05T17:41:03.921Z,49.57
2018-06-05T17:43:38.212Z,42.93
2018-06-05T17:46:12.583Z,43.27
2018-06-05T17:48:46.947Z,47.63
2018-06-05T17:51:21.313Z,41.60
2018-06-05T17:53:55.887Z,42.37
2018-06-05T17:56:30.687Z,49.27
2018-06-05T17:59:04.999Z,46.73
2018-06-05T18:01:39.516Z,48.80
2018-06-05T18:04:13.915Z,49.13
2018-06-05T18:06:48.194Z,48.57
2018-06-05T18:09:22.591Z,47.17
2018-06-05T18:11:57.030Z,44.07
2018-06-05T18:14:31.735Z,44.63
2018-06-05T18:17:06.311Z,42.90
2018-06-05T18:19:40.711Z,46.57
2018-06-05T18:22:14.996Z,44.60
2018-06-05T18:24:49.436Z,47.93
2018-06-05T18:27:23.847Z,48.23
2018-06-05T18:29:58.307Z,49.50
2018-06-05T18:32:32.589Z,43.77
2018-06-05T18:35:06.999Z,43.03
2018-06-05T18:37:41.380Z,46.70
2018-06-05T18:40:15.859Z,43.80
2018-06-05T18:42:50.198Z,48.83
2018-06-05T18:45:24.616Z,49.27
2018-06-05T18:47:59.066Z,43.73
2018-06-05T18:50:33.434Z,45.87
2018-06-05T18:53:07.851Z,46.50
2018-06-05T18:55:42.304Z,44.70
2018-06-05T18:58:16.547Z,44.87
2018-06-05T19:00:50.935Z,44.70
2018-06-05T19:03:25.211Z,43.83
2018-06-05T19:05:59.563Z,46.97
2018-06-05T19:08:33.835Z,47.03
2018-06-05T19:11:08.175Z,47.50
2018-06-05T19:13:42.527Z,47.40
2018-06-05T19:16:29.719Z,49.73
2018-06-05T19:19:04.104Z,51.83
2018-06-05T19:21:38.532Z,45.57
2018-06-05T19:24:12.915Z,47.97
2018-06-05T19:26:47.303Z,45.17
2018-06-05T19:29:21.903Z,49.60
2018-06-05T19:31:56.388Z,42.90
2018-06-05T19:34:30.705Z,47.23
2018-06-05T19:37:05.048Z,48.57
2018-06-05T19:39:39.696Z,52.23
2018-06-05T19:42:14.470Z,48.60
2018-06-05T19:44:48.907Z,51.90
2018-06-05T19:47:23.208Z,49.13
2018-06-05T19:49:57.575Z,53.57
2018-06-05T19:52:31.883Z,52.37
2018-06-05T19:55:06.163Z,53.07
2018-06-05T19:57:40.576Z,52.93
2018-06-05T20:00:14.995Z,51.53
2018-06-05T20:02:49.396Z,51.30
2018-06-05T20:05:23.720Z,56.13
2018-06-05T20:07:58.087Z,53.60
2018-06-05T20:10:32.756Z,55.23
2018-06-05T20:13:07.121Z,52.37
2018-06-05T20:15:41.392Z,56.97
2018-06-05T20:18:15.851Z,57.00
2018-06-05T20:20:50.425Z,52.43
2018-06-05T20:23:24.744Z,56.97
2018-06-05T20:25:59.126Z,60.60
2018-06-05T20:28:33.536Z,59.90
2018-06-05T20:31:08.017Z,60.70
2018-06-05T20:33:42.232Z,57.87
2018-06-05T20:36:16.567Z,60.73
2018-06-05T20:38:50.914Z,58.60
2018-06-05T20:41:25.309Z,56.90
2018-06-05T20:43:59.722Z,59.67
2018-06-05T20:46:34.109Z,57.80
2018-06-05T20:49:08.848Z,59.87
2018-06-05T20:51:43.007Z,58.83
2018-06-05T20:54:17.419Z,59.30
2018-06-05T20:56:51.771Z,57.40
2018-06-05T20:59:26.100Z,61.77
2018-06-05T21:02:00.399Z,59.80
2018-06-05T21:04:34.903Z,58.43
2018-06-05T21:07:09.367Z,57.90
2018-06-05T21:09:43.675Z,61.80
2018-06-05T21:12:18.481Z,66.53
2018-06-05T21:14:52.635Z,59.30
2018-06-05T21:17:27.111Z,62.57
2018-06-05T21:20:01.536Z,64.13
2018-06-05T21:22:35.907Z,61.00
2018-06-05T21:25:10.368Z,58.23
2018-06-05T21:27:44.800Z,64.40
2018-06-05T21:30:19.535Z,66.23
2018-06-05T21:32:53.647Z,61.93
2018-06-05T21:35:28.016Z,60.37
2018-06-05T21:38:02.304Z,61.77
2018-06-05T21:40:36.656Z,66.47
2018-06-05T21:43:11.007Z,61.73
2018-06-05T21:45:45.384Z,64.27
2018-06-05T21:48:19.787Z,62.83
2018-06-05T21:50:54.140Z,58.83
2018-06-05T21:53:28.491Z,57.80
2018-06-05T21:56:02.851Z,60.93
2018-06-05T21:58:37.263Z,66.93
2018-06-05T22:01:11.612Z,57.53
2018-06-05T22:03:45.999Z,60.10
2018-06-05T22:06:20.332Z,59.23
2018-06-05T22:08:54.632Z,59.07
2018-06-05T22:11:29.135Z,61.67
2018-06-05T22:14:04.523Z,56.80
2018-06-05T22:16:38.903Z,55.33
2018-06-05T22:19:13.356Z,58.37
2018-06-05T22:21:47.664Z,64.97
2018-06-05T22:24:22.101Z,60.63
2018-06-05T22:26:56.895Z,58.50
2018-06-05T22:29:31.616Z,61.30
2018-06-05T22:32:06.007Z,64.93
2018-06-05T22:34:40.656Z,58.83
2018-06-05T22:37:15.151Z,59.10
2018-06-05T22:39:49.479Z,58.80
2018-06-05T22:42:23.948Z,60.37
2018-06-05T22:44:58.517Z,61.60
2018-06-05T22:47:32.957Z,60.23
2018-06-05T22:50:07.606Z,61.57
2018-06-05T22:52:42.172Z,61.53
2018-06-05T22:55:16.565Z,60.47
2018-06-05T22:57:51.168Z,58.87
2018-06-05T23:00:30.192Z,63.80
2018-06-05T23:03:05.105Z,62.77
2018-06-05T23:05:39.509Z,58.97
2018-06-05T23:08:13.828Z,60.87
2018-06-05T23:10:48.317Z,57.87
2018-06-05T23:13:22.728Z,53.40
2018-06-05T23:15:57.081Z,56.97
2018-06-05T23:18:31.612Z,61.53
2018-06-05T23:21:06.784Z,60.87
2018-06-05T23:23:41.480Z,60.27
2018-06-05T23:26:15.989Z,65.67
2018-06-05T23:28:50.413Z,64.00
2018-06-05T23:31:24.820Z,64.40
2018-06-05T23:33:59.369Z,58.53
2018-06-05T23:36:33.874Z,57.87
2018-06-05T23:39:08.433Z,61.37
2018-06-05T23:41:42.841Z,68.63
2018-06-05T23:44:17.156Z,63.00
2018-06-05T23:47:13.968Z,58.37
2018-06-05T23:49:48.456Z,61.37
2018-06-05T23:52:23.180Z,59.17
2018-06-05T23:54:57.656Z,60.67
2018-06-05T23:57:32.113Z,61.17
